createdAt,value
2018-07-17T00:00:29.093Z,3.17
2018-07-17T00:02:59.950Z,3.50
2018-07-17T00:05:31.898Z,3.20
2018-07-17T00:08:03.791Z,2.80
2018-07-17T00:10:38.927Z,3.30
2018-07-17T00:13:09.738Z,2.67
2018-07-17T00:15:41.672Z,3.13
2018-07-17T00:18:13.410Z,2.83
2018-07-17T00:20:44.639Z,3.30
2018-07-17T00:23:15.307Z,3.10
2018-07-17T00:25:46.953Z,3.13
2018-07-17T00:28:18.282Z,3.00
2018-07-17T00:30:51.395Z,3.10
2018-07-17T00:33:23.609Z,2.83
2018-07-17T00:35:55.186Z,3.10
2018-07-17T00:38:26.998Z,3.20
2018-07-17T00:41:17.666Z,3.40
2018-07-17T00:43:48.634Z,3.00
2018-07-17T00:46:21.879Z,3.10
2018-07-17T00:48:52.539Z,2.80
2018-07-17T00:51:27.888Z,2.73
2018-07-17T00:53:57.667Z,3.00
2018-07-17T00:56:27.364Z,3.27
2018-07-17T00:58:57.802Z,2.73
2018-07-17T01:01:41.403Z,3.10
2018-07-17T01:04:17.883Z,2.97
2018-07-17T01:06:54.374Z,3.10
2018-07-17T01:09:31.738Z,2.77
2018-07-17T01:12:14.539Z,3.10
2018-07-17T01:14:51.053Z,2.57
2018-07-17T01:17:23.598Z,3.13
2018-07-17T01:19:54.710Z,2.70
2018-07-17T01:22:26.368Z,2.70
2018-07-17T01:24:56.758Z,2.80
2018-07-17T01:27:28.297Z,3.10
2018-07-17T01:30:00.319Z,3.07
2018-07-17T01:32:35.768Z,2.87
2018-07-17T01:35:07.149Z,2.77
2018-07-17T01:37:38.977Z,2.93
2018-07-17T01:40:10.585Z,2.70
2018-07-17T01:42:43.391Z,3.03
2018-07-17T01:45:14.495Z,2.67
2018-07-17T01:47:46.665Z,2.90
2018-07-17T01:50:17.833Z,2.97
2018-07-17T01:52:50.098Z,2.93
2018-07-17T01:55:21.157Z,3.17
2018-07-17T01:57:52.190Z,2.97
2018-07-17T02:00:23.919Z,2.87
2018-07-17T02:03:07.891Z,3.07
2018-07-17T02:05:38.451Z,2.70
2018-07-17T02:08:08.750Z,3.00
2018-07-17T02:10:39.833Z,2.90
2018-07-17T02:13:12.106Z,3.07
2018-07-17T02:15:43.047Z,2.57
2018-07-17T02:18:13.448Z,3.00
2018-07-17T02:20:44.793Z,3.10
2018-07-17T02:23:16.516Z,3.03
2018-07-17T02:25:48.326Z,3.20
2018-07-17T02:28:20.659Z,2.87
2018-07-17T02:30:52.335Z,2.60
2018-07-17T02:33:27.251Z,2.77
2018-07-17T02:35:59.205Z,2.80
2018-07-17T02:38:30.050Z,2.73
2018-07-17T02:40:59.701Z,2.90
2018-07-17T02:43:36.362Z,3.10
2018-07-17T02:46:07.844Z,2.90
2018-07-17T02:48:39.988Z,2.50
2018-07-17T02:51:11.078Z,2.83
2018-07-17T02:53:43.771Z,2.70
2018-07-17T02:56:16.374Z,3.03
2018-07-17T02:58:47.887Z,3.00
2018-07-17T03:01:18.250Z,2.90
2018-07-17T03:03:56.531Z,2.70
2018-07-17T03:06:28.714Z,2.87
2018-07-17T03:08:59.681Z,2.90
2018-07-17T03:11:29.956Z,3.00
2018-07-17T03:14:02.475Z,3.07
2018-07-17T03:16:33.569Z,2.60
2018-07-17T03:19:05.002Z,3.00
2018-07-17T03:21:37.192Z,2.93
2018-07-17T03:24:08.410Z,2.90
2018-07-17T03:26:40.446Z,2.90
2018-07-17T03:29:11.732Z,2.93
2018-07-17T03:31:43.772Z,2.90
2018-07-17T03:34:18.993Z,2.80
2018-07-17T03:36:51.876Z,2.63
2018-07-17T03:39:23.594Z,2.70
2018-07-17T03:41:55.201Z,3.33
2018-07-17T03:44:30.244Z,3.07
2018-07-17T03:47:01.407Z,2.53
2018-07-17T03:49:32.112Z,3.10
2018-07-17T03:52:03.991Z,2.77
2018-07-17T03:54:40.474Z,2.93
2018-07-17T03:57:12.573Z,3.00
2018-07-17T03:59:44.134Z,3.07
2018-07-17T04:02:15.183Z,2.87
2018-07-17T04:04:55.879Z,3.00
2018-07-17T04:07:27.859Z,3.10
2018-07-17T04:09:59.555Z,2.83
2018-07-17T04:12:31.544Z,3.03
2018-07-17T04:15:12.755Z,3.00
2018-07-17T04:17:43.766Z,3.00
2018-07-17T04:20:15.358Z,2.60
2018-07-17T04:22:47.017Z,2.90
2018-07-17T04:25:22.047Z,3.03
2018-07-17T04:27:52.481Z,3.27
2018-07-17T04:30:23.978Z,2.83
2018-07-17T04:32:55.383Z,2.80
2018-07-17T04:35:26.626Z,2.97
2018-07-17T04:37:57.619Z,3.13
2018-07-17T04:40:27.619Z,3.00
2018-07-17T04:42:58.563Z,2.80
2018-07-17T04:45:31.592Z,3.10
2018-07-17T04:48:02.868Z,3.20
2018-07-17T04:50:34.205Z,2.83
2018-07-17T04:53:05.946Z,2.53
2018-07-17T04:55:37.719Z,3.20
2018-07-17T04:58:09.989Z,3.00
2018-07-17T05:00:41.772Z,3.37
2018-07-17T05:03:11.841Z,2.73
2018-07-17T05:05:43.117Z,3.27
2018-07-17T05:08:14.699Z,2.73
2018-07-17T05:10:45.088Z,3.00
2018-07-17T05:13:15.614Z,2.80
2018-07-17T05:15:49.810Z,2.67
2018-07-17T05:18:21.260Z,3.20
2018-07-17T05:20:51.238Z,3.67
2018-07-17T05:23:22.179Z,3.23
2018-07-17T05:25:58.345Z,3.40
2018-07-17T05:28:29.767Z,3.27
2018-07-17T05:31:01.260Z,3.03
2018-07-17T05:33:33.738Z,2.97
2018-07-17T05:36:15.514Z,3.10
2018-07-17T05:38:46.544Z,2.60
2018-07-17T05:41:19.155Z,2.90
2018-07-17T05:43:49.442Z,2.93
2018-07-17T05:46:27.615Z,3.10
2018-07-17T05:49:03.909Z,3.10
2018-07-17T05:51:43.025Z,2.93
2018-07-17T05:54:12.825Z,3.03
2018-07-17T05:56:56.563Z,2.70
2018-07-17T05:59:25.907Z,3.30
2018-07-17T06:02:02.827Z,2.83
2018-07-17T06:07:19.260Z,3.10
2018-07-17T06:10:00.895Z,3.60
2018-07-17T06:12:34.275Z,3.03
2018-07-17T06:15:06.463Z,3.03
2018-07-17T06:17:43.215Z,3.10
2018-07-17T06:20:12.952Z,3.13
2018-07-17T06:22:43.187Z,3.00
2018-07-17T06:25:13.341Z,2.90
2018-07-17T06:27:42.663Z,2.70
2018-07-17T06:30:12.149Z,2.87
2018-07-17T06:32:41.767Z,3.43
2018-07-17T06:35:11.550Z,3.00
2018-07-17T06:37:40.807Z,3.10
2018-07-17T06:40:10.763Z,2.80
2018-07-17T06:42:40.790Z,3.07
2018-07-17T06:45:10.363Z,3.00
2018-07-17T06:47:41.817Z,3.03
2018-07-17T06:50:11.321Z,3.30
2018-07-17T06:52:40.685Z,2.90
2018-07-17T06:55:10.336Z,3.23
2018-07-17T07:00:22.044Z,2.93
2018-07-17T07:02:52.123Z,2.87
2018-07-17T07:05:22.321Z,3.00
2018-07-17T07:07:53.182Z,3.10
2018-07-17T07:10:23.141Z,3.33
2018-07-17T07:12:53.742Z,3.00
2018-07-17T07:15:23.643Z,3.37
2018-07-17T07:18:07.496Z,3.00
2018-07-17T07:20:37.719Z,3.57
2018-07-17T07:23:07.465Z,3.40
2018-07-17T07:25:37.339Z,3.00
2018-07-17T07:28:08.244Z,3.20
2018-07-17T07:30:38.246Z,3.00
2018-07-17T07:33:08.166Z,3.50
2018-07-17T07:35:38.289Z,3.33
2018-07-17T07:38:25.487Z,3.60
2018-07-17T07:40:56.109Z,3.40
2018-07-17T07:43:25.350Z,3.07
2018-07-17T07:45:56.420Z,3.73
2018-07-17T07:48:26.971Z,3.23
2018-07-17T07:50:56.767Z,3.93
2018-07-17T07:53:26.727Z,4.50
2018-07-17T07:55:57.040Z,4.20
2018-07-17T07:58:29.002Z,4.03
2018-07-17T08:06:07.708Z,3.70
2018-07-17T08:08:40.523Z,4.10
2018-07-17T08:11:11.887Z,3.40
2018-07-17T08:13:42.570Z,3.40
2018-07-17T08:16:13.867Z,3.80
2018-07-17T08:18:47.447Z,3.50
2018-07-17T08:21:17.775Z,3.30
2018-07-17T08:23:48.875Z,3.40
2018-07-17T08:26:20.172Z,3.20
2018-07-17T08:28:53.498Z,3.50
2018-07-17T08:31:24.980Z,3.13
2018-07-17T08:33:56.299Z,3.60
2018-07-17T08:36:27.305Z,3.70
2018-07-17T08:39:05.869Z,4.20
2018-07-17T08:41:36.926Z,3.60
2018-07-17T08:44:07.386Z,4.00
2018-07-17T08:46:37.370Z,4.80
2018-07-17T08:49:11.947Z,3.57
2018-07-17T08:51:43.310Z,3.40
2018-07-17T08:54:15.662Z,3.53
2018-07-17T08:56:45.916Z,3.57
2018-07-17T08:59:24.916Z,3.47
2018-07-17T09:01:55.890Z,3.47
2018-07-17T09:04:25.822Z,4.00
2018-07-17T09:06:56.788Z,3.47
2018-07-17T09:09:28.148Z,3.67
2018-07-17T09:11:59.255Z,3.70
2018-07-17T09:14:31.369Z,3.60
2018-07-17T09:17:03.105Z,3.30
2018-07-17T09:19:41.275Z,3.47
2018-07-17T09:22:11.081Z,3.77
2018-07-17T09:24:41.606Z,4.03
2018-07-17T09:27:12.611Z,3.67
2018-07-17T09:29:46.035Z,3.60
2018-07-17T09:32:17.398Z,3.90
2018-07-17T09:34:49.242Z,3.67
2018-07-17T09:37:20.319Z,3.20
2018-07-17T09:39:57.955Z,3.97
2018-07-17T09:42:29.375Z,3.43
2018-07-17T09:44:59.557Z,4.20
2018-07-17T09:47:31.566Z,4.03
2018-07-17T09:50:13.142Z,4.20
2018-07-17T09:52:44.490Z,3.80
2018-07-17T09:55:16.538Z,3.87
2018-07-17T09:57:48.161Z,3.70
2018-07-17T10:00:25.874Z,3.90
2018-07-17T10:02:57.997Z,3.90
2018-07-17T10:05:30.429Z,3.80
2018-07-17T10:08:01.615Z,3.80
2018-07-17T10:10:40.590Z,4.13
2018-07-17T10:13:12.209Z,3.67
2018-07-17T10:15:43.492Z,3.60
2018-07-17T10:18:14.599Z,3.40
2018-07-17T10:20:46.994Z,4.13
2018-07-17T10:23:18.708Z,3.80
2018-07-17T10:25:50.066Z,3.33
2018-07-17T10:28:22.079Z,3.60
2018-07-17T10:30:53.847Z,3.20
2018-07-17T10:33:23.413Z,3.63
2018-07-17T10:35:54.904Z,3.60
2018-07-17T10:38:26.186Z,3.70
2018-07-17T10:40:58.350Z,3.20
2018-07-17T10:43:28.347Z,3.70
2018-07-17T10:46:02.811Z,3.27
2018-07-17T10:48:35.039Z,3.70
2018-07-17T10:51:08.082Z,3.57
2018-07-17T10:53:38.292Z,3.53
2018-07-17T10:56:09.822Z,3.10
2018-07-17T10:58:41.186Z,3.20
2018-07-17T11:01:16.105Z,3.50
2018-07-17T11:03:47.999Z,3.60
2018-07-17T11:06:20.308Z,3.47
2018-07-17T11:08:50.927Z,3.40
2018-07-17T11:11:22.644Z,3.50
2018-07-17T11:13:54.031Z,3.73
2018-07-17T11:16:26.502Z,3.17
2018-07-17T11:18:59.162Z,3.67
2018-07-17T11:21:31.459Z,3.70
2018-07-17T11:24:01.960Z,3.40
2018-07-17T11:26:33.350Z,3.67
2018-07-17T11:29:06.308Z,3.77
2018-07-17T11:31:38.806Z,3.50
2018-07-17T11:34:10.855Z,2.87
2018-07-17T11:36:40.718Z,3.00
2018-07-17T11:39:12.306Z,2.80
2018-07-17T11:41:51.507Z,2.70
2018-07-17T11:44:23.631Z,2.57
2018-07-17T11:46:56.143Z,2.57
2018-07-17T11:49:27.124Z,2.70
2018-07-17T11:52:01.512Z,2.83
2018-07-17T11:54:33.572Z,3.00
2018-07-17T11:57:04.922Z,3.43
2018-07-17T11:59:35.524Z,3.20
2018-07-17T12:02:06.911Z,3.03
2018-07-17T12:04:37.521Z,3.13
2018-07-17T12:07:09.704Z,3.00
2018-07-17T12:09:40.476Z,3.00
2018-07-17T12:12:13.683Z,3.17
2018-07-17T12:14:47.877Z,3.70
2018-07-17T12:17:19.894Z,2.90
2018-07-17T12:19:50.467Z,3.00
2018-07-17T12:22:28.605Z,3.10
2018-07-17T12:24:59.260Z,3.13
2018-07-17T12:27:34.699Z,3.33
2018-07-17T12:30:08.645Z,3.90
2018-07-17T12:32:42.725Z,2.80
2018-07-17T12:35:14.659Z,3.83
2018-07-17T12:37:46.735Z,3.77
2018-07-17T12:40:19.035Z,3.07
2018-07-17T12:42:51.240Z,3.70
2018-07-17T12:45:22.806Z,2.63
2018-07-17T12:47:55.056Z,2.70
2018-07-17T12:50:25.853Z,2.70
2018-07-17T12:52:56.786Z,3.10
2018-07-17T12:55:27.914Z,2.60
2018-07-17T12:57:58.820Z,2.57
2018-07-17T13:00:30.639Z,2.57
2018-07-17T13:03:13.067Z,2.57
2018-07-17T13:05:43.853Z,2.93
2018-07-17T13:08:16.245Z,2.53
2018-07-17T13:10:48.303Z,2.83
2018-07-17T13:13:26.947Z,2.43
2018-07-17T13:15:58.595Z,2.53
2018-07-17T13:18:30.576Z,2.60
2018-07-17T13:21:04.677Z,2.70
2018-07-17T13:23:48.458Z,2.77
2018-07-17T13:26:19.802Z,3.10
2018-07-17T13:28:51.009Z,2.80
2018-07-17T13:31:21.235Z,2.50
2018-07-17T13:33:54.491Z,2.20
2018-07-17T13:36:25.916Z,2.70
2018-07-17T13:38:56.969Z,2.60
2018-07-17T13:41:28.117Z,2.30
2018-07-17T13:44:07.054Z,2.50
2018-07-17T13:46:39.873Z,2.07
2018-07-17T13:49:11.902Z,2.80
2018-07-17T13:51:43.910Z,2.50
2018-07-17T13:54:14.859Z,2.43
2018-07-17T13:56:45.507Z,2.60
2018-07-17T13:59:18.160Z,2.27
2018-07-17T14:01:49.770Z,2.33
2018-07-17T14:04:23.242Z,2.27
2018-07-17T14:06:55.113Z,2.77
2018-07-17T14:09:26.206Z,2.40
2018-07-17T14:11:57.123Z,2.93
2018-07-17T14:14:29.915Z,2.83
2018-07-17T14:17:00.853Z,2.70
2018-07-17T14:19:31.899Z,2.73
2018-07-17T14:22:02.171Z,2.50
2018-07-17T14:24:35.559Z,2.70
2018-07-17T14:27:06.739Z,2.27
2018-07-17T14:29:37.163Z,2.80
2018-07-17T14:32:08.745Z,2.10
2018-07-17T14:34:41.509Z,2.33
2018-07-17T14:37:12.895Z,2.47
2018-07-17T14:39:44.047Z,2.70
2018-07-17T14:42:15.051Z,2.80
2018-07-17T14:44:56.174Z,2.20
2018-07-17T14:47:26.276Z,2.53
2018-07-17T14:50:01.488Z,2.83
2018-07-17T14:52:32.019Z,2.70
2018-07-17T14:55:21.536Z,2.97
2018-07-17T14:57:53.030Z,2.40
2018-07-17T15:00:24.670Z,2.40
2018-07-17T15:02:57.001Z,2.60
2018-07-17T15:05:29.258Z,2.63
2018-07-17T15:08:00.926Z,2.70
2018-07-17T15:10:32.021Z,2.73
2018-07-17T15:13:02.181Z,2.50
2018-07-17T15:15:34.714Z,2.80
2018-07-17T15:18:06.252Z,2.53
2018-07-17T15:20:36.759Z,2.40
2018-07-17T15:23:09.378Z,2.57
2018-07-17T15:25:42.928Z,2.30
2018-07-17T15:28:14.779Z,2.43
2018-07-17T15:30:45.475Z,2.70
2018-07-17T15:33:16.434Z,2.33
2018-07-17T15:35:47.879Z,2.20
2018-07-17T15:38:18.468Z,2.20
2018-07-17T15:40:50.143Z,2.43
2018-07-17T15:43:20.959Z,2.70
2018-07-17T15:46:05.922Z,2.60
2018-07-17T15:48:36.531Z,2.90
2018-07-17T15:51:06.623Z,2.90
2018-07-17T15:53:38.143Z,2.80
2018-07-17T15:56:17.769Z,2.73
2018-07-17T15:58:49.616Z,2.70
2018-07-17T16:01:20.541Z,2.60
2018-07-17T16:03:54.865Z,2.50
2018-07-17T16:06:28.981Z,2.83
2018-07-17T16:08:58.945Z,2.83
2018-07-17T16:11:31.204Z,2.53
2018-07-17T16:14:03.452Z,2.97
2018-07-17T16:16:37.234Z,2.60
2018-07-17T16:19:08.740Z,2.50
2018-07-17T16:21:40.311Z,2.60
2018-07-17T16:24:11.587Z,2.70
2018-07-17T16:26:47.827Z,2.47
2018-07-17T16:29:20.334Z,2.80
2018-07-17T16:31:50.568Z,3.13
2018-07-17T16:34:21.187Z,3.23
2018-07-17T16:36:53.247Z,2.50
2018-07-17T16:39:24.151Z,3.07
2018-07-17T16:41:56.970Z,2.67
2018-07-17T16:44:28.538Z,2.60
2018-07-17T16:47:01.467Z,3.70
2018-07-17T16:49:33.322Z,3.50
2018-07-17T16:52:06.292Z,2.73
2018-07-17T16:54:41.850Z,2.90
2018-07-17T16:57:19.995Z,2.70
2018-07-17T16:59:50.887Z,2.83
2018-07-17T17:02:21.685Z,2.60
2018-07-17T17:04:52.675Z,2.80
2018-07-17T17:07:25.475Z,2.60
2018-07-17T17:09:57.030Z,2.70
2018-07-17T17:12:28.955Z,2.93
2018-07-17T17:15:00.624Z,2.93
2018-07-17T17:17:39.965Z,2.73
2018-07-17T17:20:11.052Z,2.97
2018-07-17T17:22:44.436Z,3.30
2018-07-17T17:25:17.491Z,3.10
2018-07-17T17:27:49.890Z,2.53
2018-07-17T17:30:19.330Z,2.50
2018-07-17T17:32:51.862Z,2.83
2018-07-17T17:35:22.907Z,3.00
2018-07-17T17:37:54.798Z,2.73
2018-07-17T17:40:26.850Z,2.97
2018-07-17T17:42:58.064Z,2.90
2018-07-17T17:45:29.689Z,2.70
2018-07-17T17:48:06.504Z,2.93
2018-07-17T17:50:40.207Z,3.00
2018-07-17T17:53:13.776Z,2.93
2018-07-17T17:55:45.890Z,2.87
2018-07-17T17:58:19.318Z,2.60
2018-07-17T18:00:52.103Z,2.90
2018-07-17T18:03:23.395Z,2.60
2018-07-17T18:05:56.412Z,2.73
2018-07-17T18:08:37.975Z,3.47
2018-07-17T18:11:10.073Z,3.40
2018-07-17T18:13:44.507Z,3.63
2018-07-17T18:16:15.417Z,2.70
2018-07-17T18:18:48.580Z,2.67
2018-07-17T18:21:21.916Z,3.10
2018-07-17T18:23:53.699Z,2.77
2018-07-17T18:26:24.768Z,3.47
2018-07-17T18:28:57.463Z,2.80
2018-07-17T18:31:28.362Z,3.10
2018-07-17T18:34:00.798Z,2.63
2018-07-17T18:36:32.925Z,2.60
2018-07-17T18:39:09.235Z,2.70
2018-07-17T18:41:40.844Z,2.90
2018-07-17T18:44:11.083Z,2.70
2018-07-17T18:46:41.797Z,3.03
2018-07-17T18:49:14.957Z,3.13
2018-07-17T18:51:46.900Z,3.27
2018-07-17T18:54:20.300Z,2.70
2018-07-17T18:56:53.319Z,2.90
2018-07-17T18:59:31.163Z,2.83
2018-07-17T19:02:01.772Z,2.90
2018-07-17T19:04:33.463Z,3.20
2018-07-17T19:07:05.160Z,3.10
2018-07-17T19:09:36.314Z,3.30
2018-07-17T19:12:07.391Z,2.80
2018-07-17T19:14:39.585Z,2.77
2018-07-17T19:17:11.493Z,4.27
2018-07-17T19:19:44.143Z,3.60
2018-07-17T19:22:16.488Z,3.10
2018-07-17T19:24:47.928Z,3.53
2018-07-17T19:27:19.137Z,3.13
2018-07-17T19:29:50.489Z,2.77
2018-07-17T19:32:24.297Z,3.30
2018-07-17T19:34:56.516Z,3.33
2018-07-17T19:37:26.490Z,2.80
2018-07-17T19:39:58.750Z,3.20
2018-07-17T19:42:30.023Z,3.10
2018-07-17T19:45:02.515Z,3.23
2018-07-17T19:47:33.978Z,3.00
2018-07-17T19:50:07.661Z,3.37
2018-07-17T19:52:38.079Z,3.03
2018-07-17T19:55:08.578Z,3.10
2018-07-17T19:57:40.408Z,3.17
2018-07-17T20:00:11.193Z,3.03
2018-07-17T20:02:42.832Z,3.10
2018-07-17T20:05:13.429Z,2.97
2018-07-17T20:07:44.897Z,3.20
2018-07-17T20:10:19.498Z,2.93
2018-07-17T20:12:49.572Z,3.40
2018-07-17T20:15:21.347Z,3.50
2018-07-17T20:17:53.008Z,4.23
2018-07-17T20:20:24.436Z,4.10
2018-07-17T20:22:56.774Z,3.93
2018-07-17T20:25:28.919Z,4.33
2018-07-17T20:28:00.599Z,4.27
2018-07-17T20:30:38.575Z,3.77
2018-07-17T20:33:09.443Z,3.70
2018-07-17T20:35:40.659Z,3.30
2018-07-17T20:38:11.847Z,3.20
2018-07-17T20:40:46.793Z,2.97
2018-07-17T20:43:17.396Z,3.20
2018-07-17T20:45:48.007Z,3.03
2018-07-17T20:48:19.618Z,3.10
2018-07-17T20:50:50.081Z,3.30
2018-07-17T20:53:22.233Z,2.90
2018-07-17T20:55:54.121Z,2.30
2018-07-17T20:58:25.735Z,2.93
2018-07-17T21:01:03.879Z,2.47
2018-07-17T21:03:35.584Z,2.50
2018-07-17T21:06:07.595Z,2.40
2018-07-17T21:08:38.088Z,2.30
2018-07-17T21:11:12.605Z,2.50
2018-07-17T21:13:43.445Z,2.77
2018-07-17T21:16:15.906Z,2.47
2018-07-17T21:18:47.106Z,2.70
2018-07-17T21:21:20.299Z,3.03
2018-07-17T21:23:52.914Z,3.20
2018-07-17T21:26:24.503Z,3.17
2018-07-17T21:28:56.283Z,2.57
2018-07-17T21:31:30.246Z,3.50
2018-07-17T21:34:02.439Z,3.70
2018-07-17T21:36:32.967Z,3.33
2018-07-17T21:39:06.059Z,3.30
2018-07-17T21:41:38.531Z,3.03
2018-07-17T21:44:10.188Z,3.17
2018-07-17T21:46:42.638Z,3.50
2018-07-17T21:49:14.124Z,3.20
2018-07-17T21:56:16.677Z,3.10
2018-07-17T21:58:47.733Z,3.50
2018-07-17T22:01:19.351Z,3.27
2018-07-17T22:03:54.367Z,2.87
2018-07-17T22:06:26.274Z,3.40
2018-07-17T22:08:57.260Z,3.10
2018-07-17T22:11:29.959Z,3.43
2018-07-17T22:14:06.115Z,4.13
2018-07-17T22:16:37.377Z,3.73
2018-07-17T22:19:10.311Z,3.20
2018-07-17T22:21:41.936Z,3.30
2018-07-17T22:24:15.027Z,3.03
2018-07-17T22:26:46.670Z,3.13
2018-07-17T22:29:17.387Z,3.40
2018-07-17T22:31:48.129Z,3.40
2018-07-17T22:34:19.171Z,3.50
2018-07-17T22:36:51.754Z,3.10
2018-07-17T22:39:23.738Z,3.10
2018-07-17T22:41:54.940Z,3.03
2018-07-17T22:44:25.097Z,3.20
2018-07-17T22:46:56.956Z,2.97
2018-07-17T22:49:29.962Z,2.83
2018-07-17T22:52:02.381Z,2.83
2018-07-17T22:54:34.148Z,2.93
2018-07-17T22:57:05.033Z,3.20
2018-07-17T22:59:36.613Z,3.13
2018-07-17T23:02:08.388Z,3.30
2018-07-17T23:04:40.955Z,3.17
2018-07-17T23:07:13.274Z,2.83
2018-07-17T23:09:43.956Z,2.73
2018-07-17T23:12:15.480Z,2.97
2018-07-17T23:14:47.047Z,2.80
2018-07-17T23:24:01.851Z,2.97
2018-07-17T23:26:35.258Z,3.00
2018-07-17T23:29:06.619Z,2.77
2018-07-17T23:31:39.629Z,2.70
2018-07-17T23:34:11.537Z,2.97
2018-07-17T23:36:43.091Z,3.00
2018-07-17T23:39:14.943Z,3.00
